createdAt,value
2019-04-27T00:00:49.333Z,90.44
2019-04-27T00:02:13.462Z,90.94
2019-04-27T00:03:35.040Z,90.80
2019-04-27T00:04:48.687Z,90.20
2019-04-27T00:05:53.552Z,90.09
2019-04-27T00:07:00.004Z,90.78
2019-04-27T00:08:15.432Z,90.95
2019-04-27T00:09:27.192Z,91.00
2019-04-27T00:10:33.591Z,91.42
2019-04-27T00:11:42.094Z,91.40
2019-04-27T00:12:46.129Z,91.32
2019-04-27T00:13:50.910Z,91.81
2019-04-27T00:14:57.159Z,91.68
2019-04-27T00:16:13.472Z,91.52
2019-04-27T00:17:44.830Z,91.65
2019-04-27T00:18:39.627Z,92.05
2019-04-27T00:19:58.052Z,92.31
2019-04-27T00:21:04.150Z,92.55
2019-04-27T00:22:10.821Z,92.36
2019-04-27T00:23:31.948Z,92.60
2019-04-27T00:24:37.984Z,91.94
2019-04-27T00:25:43.867Z,91.46
2019-04-27T00:26:48.437Z,92.09
2019-04-27T00:27:53.502Z,91.94
2019-04-27T00:28:58.320Z,91.84
2019-04-27T00:30:03.856Z,92.09
2019-04-27T00:31:09.023Z,91.89
2019-04-27T00:32:13.563Z,91.81
2019-04-27T00:33:18.032Z,92.00
2019-04-27T00:34:23.633Z,92.08
2019-04-27T00:35:29.806Z,91.83
2019-04-27T00:36:53.446Z,91.69
2019-04-27T00:38:00.008Z,91.76
2019-04-27T00:39:26.303Z,91.85
2019-04-27T00:40:33.554Z,91.65
2019-04-27T00:41:38.329Z,91.88
2019-04-27T00:42:44.110Z,91.67
2019-04-27T00:43:48.627Z,92.04
2019-04-27T00:44:54.254Z,92.14
2019-04-27T00:45:58.698Z,91.83
2019-04-27T00:47:04.872Z,91.12
2019-04-27T00:48:09.669Z,91.25
2019-04-27T00:49:14.137Z,91.80
2019-04-27T00:50:18.895Z,91.91
2019-04-27T00:51:23.643Z,91.74
2019-04-27T00:52:28.175Z,92.07
2019-04-27T00:53:33.515Z,92.03
2019-04-27T00:54:38.096Z,92.23
2019-04-27T00:55:47.415Z,92.29
2019-04-27T00:56:53.597Z,92.58
2019-04-27T00:58:04.038Z,92.88
2019-04-27T00:59:17.525Z,92.60
2019-04-27T01:00:39.568Z,92.11
2019-04-27T01:01:51.435Z,92.45
2019-04-27T01:03:03.900Z,92.05
2019-04-27T01:04:19.156Z,91.85
2019-04-27T01:05:25.244Z,92.47
2019-04-27T01:06:29.716Z,92.52
2019-04-27T01:07:34.180Z,92.10
2019-04-27T01:08:38.936Z,92.10
2019-04-27T01:09:43.496Z,91.97
2019-04-27T01:10:48.933Z,92.40
2019-04-27T01:11:53.541Z,91.94
2019-04-27T01:12:57.946Z,92.69
2019-04-27T01:14:03.888Z,92.49
2019-04-27T01:15:08.542Z,92.21
2019-04-27T01:16:15.641Z,92.17
2019-04-27T01:17:19.697Z,92.41
2019-04-27T01:18:24.432Z,91.70
2019-04-27T01:19:30.196Z,91.77
2019-04-27T01:20:34.691Z,92.00
2019-04-27T01:21:39.700Z,91.93
2019-04-27T01:22:45.157Z,92.41
2019-04-27T01:23:49.617Z,92.41
2019-04-27T01:24:54.177Z,92.51
2019-04-27T01:26:03.216Z,92.37
2019-04-27T01:27:24.125Z,92.64
2019-04-27T01:28:32.902Z,92.07
2019-04-27T01:29:39.222Z,92.58
2019-04-27T01:30:46.854Z,92.40
2019-04-27T01:31:51.600Z,92.49
2019-04-27T01:32:56.068Z,92.60
2019-04-27T01:34:00.536Z,93.04
2019-04-27T01:35:05.671Z,92.69
2019-04-27T01:36:10.747Z,92.69
2019-04-27T01:37:16.961Z,92.51
2019-04-27T01:38:21.429Z,92.59
2019-04-27T01:39:26.863Z,92.88
2019-04-27T01:40:31.353Z,92.78
2019-04-27T01:41:36.110Z,92.78
2019-04-27T01:42:41.832Z,93.02
2019-04-27T01:43:46.306Z,92.73
2019-04-27T01:44:51.118Z,92.63
2019-04-27T01:45:56.028Z,92.44
2019-04-27T01:47:00.489Z,92.37
2019-04-27T01:48:05.027Z,92.21
2019-04-27T01:49:09.926Z,92.20
2019-04-27T01:50:14.564Z,92.33
2019-04-27T01:51:20.945Z,92.35
2019-04-27T01:52:25.507Z,92.37
2019-04-27T01:53:30.437Z,92.52
2019-04-27T01:54:35.004Z,92.81
2019-04-27T01:55:40.779Z,92.70
2019-04-27T01:56:45.338Z,92.50
2019-04-27T01:57:50.089Z,92.59
2019-04-27T01:58:54.551Z,92.89
2019-04-27T01:59:59.162Z,93.00
2019-04-27T02:01:24.418Z,93.02
2019-04-27T02:02:30.806Z,92.87
2019-04-27T02:03:52.608Z,92.87
2019-04-27T02:05:14.676Z,92.67
2019-04-27T02:06:20.789Z,92.44
2019-04-27T02:07:25.651Z,92.44
2019-04-27T02:08:30.380Z,93.03
2019-04-27T02:09:34.848Z,93.13
2019-04-27T02:10:39.688Z,93.18
2019-04-27T02:11:44.158Z,93.22
2019-04-27T02:12:48.893Z,93.64
2019-04-27T02:13:53.651Z,93.66
2019-04-27T02:14:58.869Z,93.88
2019-04-27T02:16:03.379Z,93.79
2019-04-27T02:17:09.603Z,93.88
2019-04-27T02:18:14.464Z,93.92
2019-04-27T02:19:19.496Z,93.94
2019-04-27T02:20:24.297Z,94.09
2019-04-27T02:21:29.479Z,93.72
2019-04-27T02:22:33.928Z,93.72
2019-04-27T02:23:39.437Z,94.02
2019-04-27T02:24:44.202Z,94.16
2019-04-27T02:25:49.677Z,93.96
2019-04-27T02:26:54.526Z,93.75
2019-04-27T02:28:00.627Z,93.75
2019-04-27T02:29:09.487Z,93.89
2019-04-27T02:30:21.533Z,93.89
2019-04-27T02:31:45.524Z,94.34
2019-04-27T02:33:12.263Z,94.64
2019-04-27T02:34:21.773Z,94.29
2019-04-27T02:35:26.236Z,94.20
2019-04-27T02:36:30.748Z,94.20
2019-04-27T02:37:35.647Z,94.24
2019-04-27T02:38:40.709Z,94.22
2019-04-27T02:39:45.239Z,94.28
2019-04-27T02:40:59.815Z,94.24
2019-04-27T02:42:03.942Z,93.75
2019-04-27T02:43:10.484Z,93.96
2019-04-27T02:44:22.601Z,93.61
2019-04-27T02:45:27.066Z,93.95
2019-04-27T02:46:31.747Z,93.95
2019-04-27T02:47:36.486Z,93.77
2019-04-27T02:48:55.339Z,93.59
2019-04-27T02:49:47.401Z,93.84
2019-04-27T02:50:53.502Z,93.87
2019-04-27T02:52:05.381Z,93.66
2019-04-27T02:53:11.127Z,93.66
2019-04-27T02:54:16.076Z,93.86
2019-04-27T02:55:20.546Z,94.04
2019-04-27T02:56:25.191Z,94.10
2019-04-27T02:57:30.433Z,94.30
2019-04-27T02:58:34.930Z,94.30
2019-04-27T02:59:40.036Z,94.37
2019-04-27T03:00:44.928Z,94.48
2019-04-27T03:02:02.898Z,94.53
2019-04-27T03:03:10.171Z,94.39
2019-04-27T03:04:14.839Z,93.94
2019-04-27T03:05:22.374Z,93.94
2019-04-27T03:06:26.838Z,94.37
2019-04-27T03:07:31.610Z,94.13
2019-04-27T03:08:36.072Z,94.12
2019-04-27T03:09:40.546Z,94.29
2019-04-27T03:10:45.019Z,94.46
2019-04-27T03:11:50.084Z,94.27
2019-04-27T03:13:00.110Z,94.47
2019-04-27T03:14:15.107Z,94.58
2019-04-27T03:15:22.879Z,94.34
2019-04-27T03:16:33.256Z,94.33
2019-04-27T03:17:49.473Z,94.31
2019-04-27T03:19:10.213Z,94.05
2019-04-27T03:20:03.709Z,94.05
2019-04-27T03:21:12.775Z,94.37
2019-04-27T03:22:20.069Z,93.85
2019-04-27T03:23:24.800Z,93.46
2019-04-27T03:24:46.677Z,93.51
2019-04-27T03:25:52.780Z,93.86
2019-04-27T03:27:00.500Z,93.56
2019-04-27T03:28:10.525Z,92.93
2019-04-27T03:29:14.515Z,92.93
2019-04-27T03:30:22.963Z,93.54
2019-04-27T03:31:25.580Z,92.99
2019-04-27T03:32:31.658Z,92.74
2019-04-27T03:33:36.482Z,92.74
2019-04-27T03:34:42.060Z,92.79
2019-04-27T03:35:46.940Z,92.99
2019-04-27T03:36:51.858Z,93.18
2019-04-27T03:37:56.328Z,92.86
2019-04-27T03:39:00.797Z,92.86
2019-04-27T03:40:10.259Z,92.24
2019-04-27T03:41:14.180Z,92.44
2019-04-27T03:42:20.750Z,92.69
2019-04-27T03:43:24.915Z,93.05
2019-04-27T03:44:32.050Z,92.79
2019-04-27T03:45:36.024Z,92.79
2019-04-27T03:46:41.739Z,92.79
2019-04-27T03:47:46.512Z,92.48
2019-04-27T03:48:51.141Z,92.52
2019-04-27T03:49:55.670Z,92.52
2019-04-27T03:51:01.779Z,92.34
2019-04-27T03:52:09.631Z,92.34
2019-04-27T03:53:29.805Z,92.96
2019-04-27T03:54:50.373Z,92.51
2019-04-27T03:56:01.391Z,92.13
2019-04-27T03:57:09.933Z,92.02
2019-04-27T03:58:21.777Z,92.02
2019-04-27T03:59:34.055Z,91.95
2019-04-27T04:00:39.830Z,92.30
2019-04-27T04:01:44.411Z,92.47
2019-04-27T04:02:50.224Z,92.05
2019-04-27T04:03:55.164Z,91.98
2019-04-27T04:04:59.945Z,92.15
2019-04-27T04:06:04.845Z,92.01
2019-04-27T04:07:15.581Z,91.99
2019-04-27T04:08:20.385Z,92.29
2019-04-27T04:09:26.482Z,92.53
2019-04-27T04:10:32.912Z,92.58
2019-04-27T04:11:45.376Z,92.34
2019-04-27T04:12:56.381Z,91.91
2019-04-27T04:14:02.404Z,91.76
2019-04-27T04:15:10.010Z,91.77
2019-04-27T04:16:32.381Z,92.21
2019-04-27T04:17:40.226Z,92.19
2019-04-27T04:19:00.346Z,92.10
2019-04-27T04:20:06.585Z,91.92
2019-04-27T04:21:11.052Z,91.79
2019-04-27T04:22:15.531Z,91.79
2019-04-27T04:23:20.616Z,91.62
2019-04-27T04:24:29.342Z,91.62
2019-04-27T04:25:33.383Z,91.99
2019-04-27T04:26:40.264Z,91.85
2019-04-27T04:27:44.312Z,92.26
2019-04-27T04:28:50.006Z,91.99
2019-04-27T04:29:54.923Z,92.02
2019-04-27T04:31:00.497Z,92.75
2019-04-27T04:32:05.576Z,92.75
2019-04-27T04:33:10.597Z,91.64
2019-04-27T04:34:15.123Z,91.64
2019-04-27T04:35:22.226Z,91.97
2019-04-27T04:36:26.708Z,92.24
2019-04-27T04:37:31.154Z,91.96
2019-04-27T04:38:36.011Z,91.52
2019-04-27T04:39:40.747Z,90.79
2019-04-27T04:40:46.862Z,91.27
2019-04-27T04:41:55.743Z,91.19
2019-04-27T04:43:07.600Z,91.19
2019-04-27T04:44:21.127Z,91.30
2019-04-27T04:45:27.219Z,91.60
2019-04-27T04:46:33.326Z,91.51
2019-04-27T04:47:45.448Z,91.51
2019-04-27T04:48:50.442Z,91.50
2019-04-27T04:50:10.380Z,91.12
2019-04-27T04:51:01.052Z,91.35
2019-04-27T04:52:05.790Z,91.48
2019-04-27T04:53:12.574Z,91.99
2019-04-27T04:54:16.408Z,91.99
2019-04-27T04:55:20.889Z,91.94
2019-04-27T04:56:25.341Z,91.94
2019-04-27T04:57:29.997Z,91.43
2019-04-27T04:58:34.536Z,90.92
2019-04-27T04:59:39.161Z,91.19
2019-04-27T05:00:43.845Z,91.19
2019-04-27T05:01:49.913Z,91.47
2019-04-27T05:02:54.548Z,91.56
2019-04-27T05:03:59.129Z,91.68
2019-04-27T05:05:05.087Z,91.63
2019-04-27T05:06:09.853Z,91.16
2019-04-27T05:07:14.322Z,91.16
2019-04-27T05:08:19.143Z,91.27
2019-04-27T05:09:23.726Z,91.01
2019-04-27T05:10:28.864Z,91.01
2019-04-27T05:11:34.373Z,90.73
2019-04-27T05:12:38.837Z,90.59
2019-04-27T05:13:43.295Z,90.75
2019-04-27T05:14:48.906Z,90.75
2019-04-27T05:15:53.797Z,90.46
2019-04-27T05:16:59.174Z,90.35
2019-04-27T05:18:04.091Z,89.77
2019-04-27T05:19:11.095Z,90.21
2019-04-27T05:20:26.213Z,90.02
2019-04-27T05:21:32.884Z,90.47
2019-04-27T05:22:37.353Z,89.84
2019-04-27T05:23:42.102Z,90.19
2019-04-27T05:24:49.330Z,89.60
2019-04-27T05:25:53.865Z,89.60
2019-04-27T05:26:59.032Z,89.61
2019-04-27T05:28:03.952Z,89.63
2019-04-27T05:29:09.225Z,90.00
2019-04-27T05:30:13.750Z,89.35
2019-04-27T05:31:19.511Z,89.31
2019-04-27T05:32:24.363Z,89.50
2019-04-27T05:33:28.829Z,89.28
2019-04-27T05:34:33.289Z,89.34
2019-04-27T05:35:40.634Z,89.69
2019-04-27T05:36:48.784Z,89.72
2019-04-27T05:37:50.381Z,88.97
2019-04-27T05:38:54.844Z,89.52
2019-04-27T05:39:59.318Z,89.32
2019-04-27T05:41:03.871Z,89.47
2019-04-27T05:42:12.557Z,89.34
2019-04-27T05:43:16.288Z,88.69
2019-04-27T05:44:25.736Z,89.01
2019-04-27T05:45:57.070Z,89.01
2019-04-27T05:47:05.315Z,87.84
2019-04-27T05:48:11.845Z,88.34
2019-04-27T05:49:18.799Z,88.46
2019-04-27T05:50:35.514Z,88.53
2019-04-27T05:51:36.651Z,87.43
2019-04-27T05:52:36.603Z,87.52
2019-04-27T05:53:41.069Z,88.35
2019-04-27T05:54:45.705Z,87.91
2019-04-27T05:55:50.188Z,87.86
2019-04-27T05:56:54.657Z,88.03
2019-04-27T05:57:59.281Z,87.93
2019-04-27T05:59:03.828Z,88.50
2019-04-27T06:00:09.280Z,88.59
2019-04-27T06:01:13.762Z,88.77
2019-04-27T06:02:20.760Z,88.51
2019-04-27T06:03:24.390Z,88.31
2019-04-27T06:04:29.227Z,87.20
2019-04-27T06:05:33.683Z,87.56
2019-04-27T06:06:39.883Z,87.62
2019-04-27T06:07:44.412Z,88.03
2019-04-27T06:08:49.548Z,87.78
2019-04-27T06:09:54.008Z,87.55
2019-04-27T06:10:59.319Z,87.34
2019-04-27T06:12:03.879Z,86.73
2019-04-27T06:13:10.611Z,87.01
2019-04-27T06:14:14.507Z,86.98
2019-04-27T06:15:19.856Z,87.75
2019-04-27T06:16:24.433Z,87.51
2019-04-27T06:17:29.894Z,87.12
2019-04-27T06:18:34.872Z,87.04
2019-04-27T06:19:39.336Z,87.35
2019-04-27T06:20:53.323Z,86.35
2019-04-27T06:21:50.149Z,87.07
2019-04-27T06:22:54.548Z,87.43
2019-04-27T06:23:59.092Z,86.70
2019-04-27T06:25:04.362Z,85.89
2019-04-27T06:26:11.671Z,86.16
2019-04-27T06:27:14.982Z,86.31
2019-04-27T06:28:19.733Z,85.53
2019-04-27T06:29:24.553Z,85.32
2019-04-27T06:30:29.335Z,85.62
2019-04-27T06:31:34.076Z,85.04
2019-04-27T06:32:39.564Z,85.20
2019-04-27T06:33:44.184Z,85.43
2019-04-27T06:34:48.987Z,85.40
2019-04-27T06:35:53.480Z,84.73
2019-04-27T06:36:59.944Z,84.60
2019-04-27T06:38:04.562Z,84.46
2019-04-27T06:39:09.929Z,84.13
2019-04-27T06:40:14.899Z,84.19
2019-04-27T06:41:19.379Z,84.10
2019-04-27T06:42:23.871Z,84.29
2019-04-27T06:43:29.424Z,83.28
2019-04-27T06:44:33.983Z,83.23
2019-04-27T06:45:38.855Z,82.58
2019-04-27T06:46:43.416Z,81.27
2019-04-27T06:47:48.837Z,81.57
2019-04-27T06:48:54.045Z,81.81
2019-04-27T06:49:58.786Z,81.39
2019-04-27T06:51:05.678Z,81.17
2019-04-27T06:52:09.608Z,80.68
2019-04-27T06:53:14.072Z,80.72
2019-04-27T06:54:19.767Z,80.05
2019-04-27T06:55:25.076Z,80.79
2019-04-27T06:56:29.941Z,80.73
2019-04-27T06:57:34.714Z,80.68
2019-04-27T06:58:40.737Z,79.92
2019-04-27T06:59:45.379Z,79.31
2019-04-27T07:00:50.221Z,80.32
2019-04-27T07:01:55.040Z,80.01
2019-04-27T07:02:59.768Z,79.17
2019-04-27T07:04:04.252Z,81.09
2019-04-27T07:05:09.112Z,80.74
2019-04-27T07:06:13.568Z,81.01
2019-04-27T07:07:19.468Z,80.12
2019-04-27T07:08:24.068Z,80.51
2019-04-27T07:09:29.649Z,80.66
2019-04-27T07:10:34.143Z,80.75
2019-04-27T07:11:39.382Z,80.12
2019-04-27T07:12:44.058Z,80.32
2019-04-27T07:13:49.789Z,81.04
2019-04-27T07:14:55.194Z,80.73
2019-04-27T07:15:59.788Z,80.39
2019-04-27T07:17:04.233Z,80.62
2019-04-27T07:18:09.717Z,81.45
2019-04-27T07:19:14.654Z,81.40
2019-04-27T07:20:19.536Z,81.33
2019-04-27T07:21:24.884Z,81.63
2019-04-27T07:22:29.954Z,81.24
2019-04-27T07:23:38.924Z,81.10
2019-04-27T07:24:48.705Z,80.84
2019-04-27T07:25:53.600Z,79.77
2019-04-27T07:26:59.665Z,80.97
2019-04-27T07:28:04.671Z,80.96
2019-04-27T07:29:09.718Z,80.00
2019-04-27T07:30:14.472Z,80.21
2019-04-27T07:31:19.364Z,81.28
2019-04-27T07:32:23.809Z,78.96
2019-04-27T07:33:29.679Z,79.70
2019-04-27T07:34:35.117Z,80.18
2019-04-27T07:35:39.590Z,79.50
2019-04-27T07:36:44.349Z,79.65
2019-04-27T07:37:49.152Z,78.09
2019-04-27T07:38:53.629Z,78.93
2019-04-27T07:39:59.151Z,78.41
2019-04-27T07:41:04.074Z,77.79
2019-04-27T07:42:15.364Z,78.68
2019-04-27T07:43:30.077Z,77.41
2019-04-27T07:44:36.334Z,76.85
2019-04-27T07:45:41.481Z,77.85
2019-04-27T07:46:47.578Z,78.19
2019-04-27T07:47:53.997Z,78.67
2019-04-27T07:48:59.464Z,79.23
2019-04-27T07:50:05.054Z,78.23
2019-04-27T07:51:09.520Z,78.55
2019-04-27T07:52:14.003Z,78.08
2019-04-27T07:53:19.351Z,78.62
2019-04-27T07:54:23.839Z,78.11
2019-04-27T07:55:28.908Z,78.95
2019-04-27T07:56:33.745Z,78.70
2019-04-27T07:57:39.786Z,77.95
2019-04-27T07:58:44.764Z,77.90
2019-04-27T07:59:50.238Z,77.89
2019-04-27T08:00:54.844Z,76.87
2019-04-27T08:01:59.342Z,76.30
2019-04-27T08:03:03.819Z,77.49
2019-04-27T08:04:09.115Z,77.23
2019-04-27T08:05:14.988Z,77.42
2019-04-27T08:06:19.451Z,77.40
2019-04-27T08:07:23.990Z,75.98
2019-04-27T08:08:28.669Z,76.31
2019-04-27T08:09:33.404Z,76.05
2019-04-27T08:10:39.211Z,74.44
2019-04-27T08:11:43.869Z,74.32
2019-04-27T08:12:49.852Z,73.58
2019-04-27T08:13:54.687Z,75.25
2019-04-27T08:15:00.066Z,74.26
2019-04-27T08:16:04.581Z,73.53
2019-04-27T08:17:09.738Z,72.85
2019-04-27T08:18:14.304Z,73.37
2019-04-27T08:19:19.619Z,73.94
2019-04-27T08:20:24.184Z,73.72
2019-04-27T08:21:28.962Z,73.68
2019-04-27T08:22:33.776Z,74.77
2019-04-27T08:23:39.405Z,71.36
2019-04-27T08:24:44.276Z,72.46
2019-04-27T08:25:49.027Z,72.46
2019-04-27T08:27:01.117Z,73.20
2019-04-27T08:28:10.454Z,72.55
2019-04-27T08:29:18.395Z,73.15
2019-04-27T08:30:24.619Z,73.32
2019-04-27T08:31:42.311Z,71.68
2019-04-27T08:32:49.726Z,71.81
2019-04-27T08:33:54.385Z,72.30
2019-04-27T08:34:59.463Z,72.79
2019-04-27T08:36:04.287Z,69.93
2019-04-27T08:37:09.274Z,69.86
2019-04-27T08:38:14.745Z,70.69
2019-04-27T08:39:19.246Z,70.15
2019-04-27T08:40:24.047Z,68.69
2019-04-27T08:41:29.544Z,68.97
2019-04-27T08:42:34.068Z,67.26
2019-04-27T08:43:39.144Z,67.54
2019-04-27T08:44:43.595Z,69.31
2019-04-27T08:45:48.914Z,67.93
2019-04-27T08:46:53.439Z,67.42
2019-04-27T08:47:59.547Z,66.60
2019-04-27T08:49:05.118Z,66.19
2019-04-27T08:50:09.831Z,64.95
2019-04-27T08:51:14.612Z,65.89
2019-04-27T08:52:19.457Z,66.54
2019-04-27T08:53:24.212Z,66.96
2019-04-27T08:54:29.479Z,67.44
2019-04-27T08:55:34.095Z,67.03
2019-04-27T08:56:39.616Z,67.39
2019-04-27T08:57:44.372Z,66.84
2019-04-27T08:58:49.663Z,67.64
2019-04-27T08:59:55.276Z,68.93
2019-04-27T09:00:59.740Z,65.05
2019-04-27T09:02:04.276Z,65.07
2019-04-27T09:03:09.523Z,64.04
2019-04-27T09:04:14.869Z,63.68
2019-04-27T09:05:21.283Z,64.39
2019-04-27T09:06:25.702Z,64.41
2019-04-27T09:07:31.935Z,63.52
2019-04-27T09:08:41.261Z,63.81
2019-04-27T09:09:49.697Z,62.52
2019-04-27T09:10:59.002Z,63.12
2019-04-27T09:12:21.173Z,64.42
2019-04-27T09:13:43.996Z,64.81
2019-04-27T09:15:04.370Z,64.66
2019-04-27T09:16:22.515Z,65.36
2019-04-27T09:17:31.591Z,65.16
2019-04-27T09:18:36.350Z,64.40
2019-04-27T09:19:45.203Z,62.74
2019-04-27T09:20:54.206Z,62.32
2019-04-27T09:22:15.812Z,63.05
2019-04-27T09:23:16.528Z,63.03
2019-04-27T09:24:21.002Z,61.01
2019-04-27T09:25:25.780Z,61.19
2019-04-27T09:26:30.418Z,61.89
2019-04-27T09:27:35.181Z,61.10
2019-04-27T09:28:39.941Z,59.18
2019-04-27T09:29:44.437Z,61.37
2019-04-27T09:30:49.793Z,58.21
2019-04-27T09:31:54.651Z,59.68
2019-04-27T09:32:59.577Z,60.87
2019-04-27T09:34:05.570Z,60.92
2019-04-27T09:35:10.282Z,58.13
2019-04-27T09:36:16.569Z,58.39
2019-04-27T09:37:21.079Z,58.85
2019-04-27T09:38:26.440Z,60.37
2019-04-27T09:39:31.397Z,58.70
2019-04-27T09:40:36.130Z,58.41
2019-04-27T09:41:40.755Z,57.60
2019-04-27T09:42:46.380Z,57.74
2019-04-27T09:43:50.883Z,58.68
2019-04-27T09:44:55.887Z,58.01
2019-04-27T09:46:00.295Z,57.54
2019-04-27T09:47:06.123Z,59.22
2019-04-27T09:48:10.711Z,59.00
2019-04-27T09:49:15.786Z,58.80
2019-04-27T09:50:20.681Z,59.67
2019-04-27T09:51:25.681Z,59.26
2019-04-27T09:52:30.724Z,58.52
2019-04-27T09:53:36.468Z,59.58
2019-04-27T09:54:41.050Z,57.09
2019-04-27T09:55:46.862Z,56.32
2019-04-27T09:56:51.686Z,56.39
2019-04-27T09:57:56.897Z,57.25
2019-04-27T09:59:01.506Z,56.49
2019-04-27T10:00:09.665Z,56.68
2019-04-27T10:01:16.375Z,56.60
2019-04-27T10:02:21.243Z,55.83
2019-04-27T10:03:26.646Z,55.85
2019-04-27T10:04:32.414Z,54.22
2019-04-27T10:05:36.934Z,54.41
2019-04-27T10:06:41.429Z,53.53
2019-04-27T10:07:47.582Z,55.14
2019-04-27T10:08:53.512Z,54.40
2019-04-27T10:09:57.983Z,53.53
2019-04-27T10:11:02.760Z,52.48
2019-04-27T10:12:07.650Z,51.91
2019-04-27T10:13:12.590Z,52.63
2019-04-27T10:14:17.036Z,54.81
2019-04-27T10:15:21.507Z,54.42
2019-04-27T10:16:29.866Z,54.27
2019-04-27T10:17:34.329Z,54.84
2019-04-27T10:18:38.802Z,52.63
2019-04-27T10:19:43.277Z,54.29
2019-04-27T10:20:58.996Z,54.51
2019-04-27T10:21:53.956Z,50.65
2019-04-27T10:22:58.424Z,50.09
2019-04-27T10:24:02.890Z,50.27
2019-04-27T10:25:10.552Z,50.36
2019-04-27T10:26:15.801Z,51.88
2019-04-27T10:27:20.280Z,51.88
2019-04-27T10:28:25.039Z,51.38
2019-04-27T10:29:29.507Z,52.38
2019-04-27T10:30:35.372Z,53.21
2019-04-27T10:31:41.597Z,51.85
2019-04-27T10:32:46.366Z,53.46
2019-04-27T10:33:50.829Z,51.79
2019-04-27T10:34:55.296Z,52.60
2019-04-27T10:35:59.766Z,53.17
2019-04-27T10:37:06.013Z,53.29
2019-04-27T10:38:10.964Z,54.99
2019-04-27T10:39:17.065Z,52.39
2019-04-27T10:40:21.572Z,51.56
2019-04-27T10:41:26.072Z,50.25
2019-04-27T10:42:30.896Z,50.12
2019-04-27T10:43:35.365Z,50.55
2019-04-27T10:44:39.831Z,51.36
2019-04-27T10:45:46.297Z,51.63
2019-04-27T10:46:50.865Z,52.73
2019-04-27T10:47:56.272Z,52.56
2019-04-27T10:49:00.777Z,51.67
2019-04-27T10:50:09.076Z,50.34
2019-04-27T10:51:13.836Z,50.77
2019-04-27T10:52:18.321Z,49.65
2019-04-27T10:53:23.074Z,51.49
2019-04-27T10:54:27.541Z,49.70
2019-04-27T10:55:32.610Z,49.06
2019-04-27T10:56:37.110Z,47.71
2019-04-27T10:57:41.573Z,47.64
2019-04-27T10:58:46.197Z,46.78
2019-04-27T10:59:50.670Z,46.73
2019-04-27T11:00:59.425Z,47.68
2019-04-27T11:02:04.271Z,47.13
2019-04-27T11:03:09.031Z,45.74
2019-04-27T11:04:15.931Z,48.83
2019-04-27T11:05:23.521Z,46.32
2019-04-27T11:06:29.697Z,45.78
2019-04-27T11:07:38.608Z,46.27
2019-04-27T11:08:43.075Z,46.53
2019-04-27T11:09:47.910Z,46.53
2019-04-27T11:10:52.380Z,47.96
2019-04-27T11:11:57.499Z,47.32
2019-04-27T11:13:01.962Z,48.66
2019-04-27T11:14:06.945Z,44.52
2019-04-27T11:15:12.064Z,44.65
2019-04-27T11:16:16.598Z,44.72
2019-04-27T11:17:21.240Z,44.90
2019-04-27T11:18:25.907Z,43.80
2019-04-27T11:19:30.497Z,43.69
2019-04-27T11:20:36.272Z,42.99
2019-04-27T11:21:40.802Z,44.02
2019-04-27T11:22:46.498Z,43.26
2019-04-27T11:23:51.323Z,41.96
2019-04-27T11:24:56.372Z,42.83
2019-04-27T11:26:02.455Z,44.60
2019-04-27T11:27:07.746Z,45.63
2019-04-27T11:28:12.281Z,46.06
2019-04-27T11:29:17.128Z,45.65
2019-04-27T11:30:22.035Z,45.65
2019-04-27T11:31:26.507Z,46.67
2019-04-27T11:32:31.022Z,46.32
2019-04-27T11:33:36.340Z,44.79
2019-04-27T11:35:00.824Z,45.73
2019-04-27T11:36:18.870Z,47.86
2019-04-27T11:37:24.990Z,45.63
2019-04-27T11:38:29.747Z,45.39
2019-04-27T11:39:35.934Z,44.56
2019-04-27T11:40:40.452Z,45.50
2019-04-27T11:41:44.921Z,48.16
2019-04-27T11:42:49.411Z,44.76
2019-04-27T11:43:54.165Z,44.87
2019-04-27T11:44:58.638Z,45.80
2019-04-27T11:46:03.097Z,45.08
2019-04-27T11:47:07.887Z,45.78
2019-04-27T11:48:12.665Z,45.33
2019-04-27T11:49:17.128Z,46.26
2019-04-27T11:50:21.959Z,44.04
2019-04-27T11:51:26.767Z,44.88
2019-04-27T11:52:32.478Z,42.52
2019-04-27T11:53:37.306Z,43.10
2019-04-27T11:54:42.089Z,45.63
2019-04-27T11:55:47.024Z,41.58
2019-04-27T11:56:51.814Z,42.40
2019-04-27T11:57:57.221Z,41.90
2019-04-27T11:59:01.689Z,41.56
2019-04-27T12:00:12.384Z,42.32
2019-04-27T12:01:16.867Z,42.26
2019-04-27T12:02:21.363Z,42.83
2019-04-27T12:03:25.892Z,42.20
2019-04-27T12:04:30.361Z,40.78
2019-04-27T12:05:36.283Z,41.25
2019-04-27T12:06:41.738Z,42.53
2019-04-27T12:07:47.842Z,42.84
2019-04-27T12:08:53.364Z,41.29
2019-04-27T12:09:57.835Z,41.68
2019-04-27T12:11:02.293Z,42.89
2019-04-27T12:12:13.513Z,43.33
2019-04-27T12:13:12.998Z,42.50
2019-04-27T12:14:17.752Z,43.26
2019-04-27T12:15:22.625Z,42.36
2019-04-27T12:16:27.135Z,44.29
2019-04-27T12:17:31.916Z,42.57
2019-04-27T12:18:36.414Z,41.42
2019-04-27T12:19:40.884Z,41.45
2019-04-27T12:20:45.916Z,43.57
2019-04-27T12:21:51.472Z,40.98
2019-04-27T12:22:56.317Z,43.53
2019-04-27T12:24:00.793Z,44.79
2019-04-27T12:25:07.991Z,41.97
2019-04-27T12:26:15.817Z,40.52
2019-04-27T12:27:27.645Z,42.59
2019-04-27T12:28:36.661Z,40.43
2019-04-27T12:29:59.037Z,38.64
2019-04-27T12:31:08.751Z,40.84
2019-04-27T12:32:13.258Z,37.99
2019-04-27T12:33:18.029Z,38.75
2019-04-27T12:34:22.522Z,39.15
2019-04-27T12:35:26.984Z,40.49
2019-04-27T12:36:31.447Z,38.53
2019-04-27T12:37:36.060Z,37.40
2019-04-27T12:38:40.538Z,37.67
2019-04-27T12:39:45.008Z,35.29
2019-04-27T12:40:49.468Z,36.79
2019-04-27T12:41:55.966Z,35.86
2019-04-27T12:43:00.458Z,33.92
2019-04-27T12:44:07.056Z,34.59
2019-04-27T12:45:12.263Z,34.56
2019-04-27T12:46:16.833Z,36.43
2019-04-27T12:47:21.463Z,32.91
2019-04-27T12:48:26.012Z,34.61
2019-04-27T12:49:30.621Z,34.84
2019-04-27T12:50:36.161Z,34.70
2019-04-27T12:51:40.727Z,35.16
2019-04-27T12:52:46.827Z,36.42
2019-04-27T12:53:55.964Z,37.41
2019-04-27T12:55:17.229Z,36.88
2019-04-27T12:56:39.702Z,34.97
2019-04-27T12:57:49.463Z,33.76
2019-04-27T12:58:56.428Z,32.88
2019-04-27T13:00:02.592Z,31.89
2019-04-27T13:01:12.014Z,33.32
2019-04-27T13:02:17.199Z,34.11
2019-04-27T13:03:21.985Z,34.59
2019-04-27T13:04:26.492Z,34.40
2019-04-27T13:05:30.943Z,34.13
2019-04-27T13:06:35.849Z,32.08
2019-04-27T13:07:41.612Z,32.94
2019-04-27T13:08:46.102Z,33.18
2019-04-27T13:09:50.874Z,33.94
2019-04-27T13:10:57.294Z,33.40
2019-04-27T13:12:02.873Z,34.66
2019-04-27T13:13:07.682Z,35.08
2019-04-27T13:14:12.159Z,36.72
2019-04-27T13:15:17.074Z,36.20
2019-04-27T13:16:21.819Z,36.11
2019-04-27T13:17:26.602Z,35.16
2019-04-27T13:18:31.228Z,35.70
2019-04-27T13:19:36.562Z,36.56
2019-04-27T13:20:41.142Z,36.85
2019-04-27T13:21:46.933Z,37.60
2019-04-27T13:22:51.539Z,38.37
2019-04-27T13:24:03.963Z,39.69
2019-04-27T13:25:02.332Z,38.18
2019-04-27T13:26:07.328Z,36.18
2019-04-27T13:27:12.151Z,35.63
2019-04-27T13:28:18.586Z,36.84
2019-04-27T13:29:23.136Z,36.37
2019-04-27T13:30:28.007Z,35.73
2019-04-27T13:31:32.877Z,34.95
2019-04-27T13:32:37.963Z,36.34
2019-04-27T13:33:42.920Z,32.89
2019-04-27T13:34:47.830Z,34.43
2019-04-27T13:35:52.666Z,33.59
2019-04-27T13:36:58.763Z,33.47
2019-04-27T13:38:03.388Z,33.48
2019-04-27T13:39:08.083Z,36.27
2019-04-27T13:40:17.188Z,33.71
2019-04-27T13:41:30.342Z,33.31
2019-04-27T13:42:29.594Z,32.42
2019-04-27T13:43:36.895Z,33.45
2019-04-27T13:44:41.803Z,34.35
2019-04-27T13:45:50.944Z,36.47
2019-04-27T13:47:08.762Z,36.00
2019-04-27T13:48:33.026Z,36.11
2019-04-27T13:49:48.165Z,37.73
2019-04-27T13:51:12.184Z,36.86
2019-04-27T13:52:18.584Z,37.04
2019-04-27T13:53:23.222Z,38.38
2019-04-27T13:54:29.199Z,39.11
2019-04-27T13:55:33.753Z,40.00
2019-04-27T13:56:38.533Z,39.45
2019-04-27T13:57:50.078Z,39.61
2019-04-27T13:58:49.155Z,40.32
2019-04-27T13:59:53.632Z,39.79
2019-04-27T14:00:59.066Z,40.98
2019-04-27T14:02:04.364Z,40.99
2019-04-27T14:03:08.821Z,41.42
2019-04-27T14:04:13.978Z,41.41
2019-04-27T14:05:18.819Z,43.20
2019-04-27T14:06:23.589Z,42.38
2019-04-27T14:07:28.335Z,42.14
2019-04-27T14:08:32.804Z,42.50
2019-04-27T14:09:39.158Z,43.04
2019-04-27T14:10:44.016Z,44.49
2019-04-27T14:11:48.767Z,43.80
2019-04-27T14:12:53.271Z,42.55
2019-04-27T14:13:58.735Z,43.12
2019-04-27T14:15:03.455Z,43.06